KASH/ASH METAR and TAF weather

Enter ICAO airport designator
Station Type Date Time Source
KASH METAR 2020/07/12 05:06 UTC NOAA

KASH 120506Z AUTO VRB04KT 10SM SCT020 24/24 A2962 RMK AO2


Station Type Date Time Source
KASH Decoded METAR 2020/07/12 05:06 UTC NOAA

Nashua, Boire Field Airport, NH, United States (KASH) 42-46-54N 071-30-53W
Jul 12, 2020 - 01:06 AM EDT / 2020.07.12 0506 UTC
Wind: Variable at 5 MPH (4 KT):0
Visibility: 10 mile(s):0
Sky conditions: partly cloudy
Temperature: 75 F (24 C)
Dew Point: 75 F (24 C)
Relative Humidity: 100%
Pressure (altimeter): 29.62 in. Hg (1003 hPa)
ob: KASH 120506Z AUTO VRB04KT 10SM SCT020 24/24 A2962 RMK AO2
cycle: 5

Station Type Date Time Source
KASH TAF UTC NOAA

Error!

Example: see airport list